Aérodrome :







RETROUVEZ-NOUS SUR...

 
LOGIN :

S'inscrire | Disclaimer

   EN    FR    IT 

 









Légende :    VFR   VFR Marginal   IFR   IFR Intensif   IFR Très Intensif
Visi : 
Plafond : 
>= 8 km
>= 3000ft
5 à 8 km
1000 à 3000 ft
1500m à 5 km
500 à 1000 ft
800 à 1500m
200 à 500 ft
< 800m
< 200 ft
Symboles :   Orages  Brouillard  Fortes neiges  Fortes précipitations  Vent > 20 kt






- Altitude de l'aérodrome : 377 ft
- Code IATA : YPS


CYPD - Port Hawkesbury

DERNIER METAR :
  • 190107Z AUTO 32009KT 280V010 7SM -SN OVC018 M11/M13 A3019 RMK SLP236

METARs EXPIRÉS :
  • 190049Z AUTO 33003KT 290V010 2 1/2SM -SN OVC016 M11/M13 A3020 RMK SLP237
  • 190028Z AUTO 32007KT 290V350 5SM -SN OVC016 M11/M13 A3020 RMK SLP238
  • 190008Z AUTO 32007G16KT 290V350 3SM -SN OVC018 M11/M13 A3020 RMK SLP236
  • 182348Z AUTO 31008G15KT 270V350 7SM -SN OVC016 M11/M13 A3019 RMK SLP235
  • 182333Z AUTO 31011KT 280V350 5SM -SN OVC016 M11/M13 A3019 RMK SLP235
  • 182330Z AUTO 30007G15KT 280V350 6SM -SN OVC016 M11/M13 A3019 RMK SLP235
  • 182312Z AUTO 30012KT 5SM -SN OVC016 M11/M13 A3019 RMK SLP235
  • 182200Z AUTO 30012G21KT 8SM -SN OVC016 M11/M14 A3019 RMK SLP233

TAF N/A



MET'MAP, la Météo Aéronautique d'un coup d'oeil ! - Copyright ORBIFLY Décembre 2007 - Disclaimer

ORBIFLY MET'MAP TEAM :

Programmation & Développement : Alexandra Zaïnal
Sur une idée originale de : Baudouin d'Aumeries
Assistance à la programmation : Marc-Olivier Méhu
Soutien technique & logistique : Manuel Goepfert

Contact : metmap@orbifly.com




SOURCES & CREDITS :

   NOAA